Terminal Aerodrome Forecast
Issued by NWS Green Bay, WI

Home | Current Version | Previous Version | Text Only | Print | Product List | Glossary Off
Versions: 1 2 3 4 5 6 7 8 9 10 11 12 13 14 15 16 17 18 19 20 21 22 23

000
FTUS43 KGRB 231120
TAFGRB
TAF
KGRB 231120Z 2312/2412 18004KT P6SM SKC
     FM231600 19012G22KT P6SM FEW250
     FM240000 17008KT P6SM SCT120 BKN200
     FM240900 20005KT P6SM VCSH BKN080=

USA.gov is the U.S. government's official web portal to all federal, state and local government web resources and services.